アスタナ の空港の天気 - METARとTAF

アスタナ国際空港 ( UACC / TSE ) - カザフスタン アスタナ
飛行場実況気象(Metar)
観測時間07/29 08:30 QYZT (07/29 03:30 UTC)
風向・風速東北東 5m/s
視程10km以上
天気現象
全天の4割程度の雲 雲底高度 790m
気温18℃
湿度60%
気圧1010hPa
METARUACC 290330Z 06005MPS 9999 SCT026CB 18/10 Q1010 R04/0///70 NOSIG RMK QFE726/0968
過去の天気等 Google飛行場航空写真 Wunderground天気予報

過去48時間のMETAR

飛行場予報(TAF)
発表時間: 7/29 06:15 QYZT (7/29 01:15 UTC)
予報対象時間: 29日6時 QYZT ~ 30日5時 QYZT
風向・風速不定 2m/s
視程10km以上
全天の4割程度の雲 雲底高度 910m
全天の8割程度の雲 雲底高度 3050m
29日7時 QYZT ~ 29日9時 QYZT に徐々に
風向・風速北東 5m/s
29日7時 QYZT ~ 29日15時 QYZT に一時的に
風向・風速東北東 6m/s
天気現象弱いしゅう雨
全天の4割程度の積乱雲 雲底高度 910m
29日15時 QYZT ~ 29日20時 QYZT に一時的に
風向・風速北北西 5m/s
天気現象弱いしゅう雨
全天の4割程度の積乱雲 雲底高度 910m
TAF AMD UACC 290115Z 2901/2924 VRB02MPS 9999 SCT030 BKN100 TX24/2909Z TN15/2902Z
BECMG 2902/2904 04005MPS
TEMPO 2902/2910 06006MPS -SHRA SCT030CB
TEMPO 2910/2915 34005MPS -SHRA SCT030CB